aviador You're here:

PASA Decoded Metar

SAVOONGA in AK, USA
Report Time2017-09-20 05:56:00
UTC Time2017-09-20 07:39:05
Flight Rules Old
Wind010° at 17 Gusting to 23 kt
W.Decomp.*RWY 05: 10.9 kt HW 13 kt LCW
W.Rank010° ranks 9
Current wind is above 010° avg. (10.3)
Visibility9999 m
Phenomena:N/A
Clouds:Scattered 025 Hf
Broken 035 Hf
Expected CloudBase > 1,600 ft AGL from Temp-Dew spread
Ceiling3,500 ft
Temp04°C (ISA -11)
Dew Point00°C (75% RH)
AAT-4.1°C
QNH1020 hPa
Density Alt-1,421 ft
Elevation52 ft
Report Wrong Elevation
Raw Report
PASA 200556Z AUTO 01017G23KT 10SM SCT025 BKN035 04/00 A3012 RMK
AO2 SLP200 60000 T00440000 10056 20044 53016 $=

Extra information for PASA:More info

Metar Taf Metar & Taf Last 4 Metars F.Rules Stats Wind Profile Meteogram Temp Stats Airport Information Weather charts Add Link Nearby VenuesMetar ALERT Operation Metar Decoded Social comments

AIRNAV info for PASA